createdAt,value
2018-06-24T00:02:11.399Z,12.90
2018-06-24T00:04:40.082Z,12.90
2018-06-24T00:07:10.014Z,12.90
2018-06-24T00:09:38.488Z,13.00
2018-06-24T00:12:07.375Z,13.00
2018-06-24T00:17:04.544Z,13.00
2018-06-24T00:19:33.107Z,13.10
2018-06-24T00:22:01.565Z,13.10
2018-06-24T00:24:30.039Z,13.10
2018-06-24T00:26:58.560Z,13.10
2018-06-24T00:29:27.041Z,13.00
2018-06-24T00:31:55.514Z,13.00
2018-06-24T00:34:24.098Z,13.00
2018-06-24T00:36:52.529Z,13.00
2018-06-24T00:39:21.928Z,13.00
2018-06-24T00:41:50.592Z,13.10
2018-06-24T00:44:19.390Z,13.10
2018-06-24T00:46:48.803Z,13.10
2018-06-24T00:49:17.301Z,13.20
2018-06-24T00:51:46.922Z,13.20
2018-06-24T00:54:15.384Z,13.20
2018-06-24T00:56:43.864Z,13.20
2018-06-24T00:59:23.860Z,13.20
2018-06-24T01:01:52.317Z,13.20
2018-06-24T01:04:20.793Z,13.10
2018-06-24T01:06:49.216Z,13.10
2018-06-24T01:09:17.669Z,13.00
2018-06-24T01:11:47.322Z,13.00
2018-06-24T01:14:15.842Z,12.90
2018-06-24T01:16:44.327Z,12.90
2018-06-24T01:19:12.837Z,12.80
2018-06-24T01:21:41.289Z,12.80
2018-06-24T01:24:09.814Z,12.70
2018-06-24T01:26:38.710Z,12.70
2018-06-24T01:29:07.197Z,12.70
2018-06-24T01:31:35.999Z,12.70
2018-06-24T01:34:04.604Z,12.70
2018-06-24T01:36:33.167Z,12.70
2018-06-24T01:39:02.173Z,12.70
2018-06-24T01:41:33.146Z,12.70
2018-06-24T01:44:01.858Z,12.60
2018-06-24T01:46:30.381Z,12.70
2018-06-24T01:48:58.937Z,12.60
2018-06-24T01:51:27.574Z,12.60
2018-06-24T01:53:56.011Z,12.60
2018-06-24T01:56:24.605Z,12.60
2018-06-24T01:58:53.365Z,12.60
2018-06-24T02:01:21.871Z,12.60
2018-06-24T02:03:50.338Z,12.60
2018-06-24T02:06:18.880Z,12.60
2018-06-24T02:08:47.332Z,12.50
2018-06-24T02:11:15.836Z,12.50
2018-06-24T02:13:44.385Z,12.50
2018-06-24T02:16:13.025Z,12.50
2018-06-24T02:18:41.800Z,12.40
2018-06-24T02:21:10.285Z,12.40
2018-06-24T02:23:38.920Z,12.30
2018-06-24T02:26:07.665Z,12.30
2018-06-24T02:31:04.689Z,12.30
2018-06-24T02:36:01.399Z,12.30
2018-06-24T02:38:29.960Z,12.30
2018-06-24T02:40:58.954Z,12.30
2018-06-24T02:43:28.656Z,12.20
2018-06-24T02:45:57.140Z,12.20
2018-06-24T02:48:26.730Z,12.10
2018-06-24T02:50:55.273Z,12.00
2018-06-24T02:53:23.752Z,12.00
2018-06-24T02:55:52.302Z,12.00
2018-06-24T02:58:20.779Z,11.90
2018-06-24T03:00:49.378Z,11.90
2018-06-24T03:03:18.307Z,11.90
2018-06-24T03:05:46.788Z,11.90
2018-06-24T03:08:15.256Z,11.90
2018-06-24T03:10:43.741Z,11.90
2018-06-24T03:13:12.801Z,11.80
2018-06-24T03:15:41.269Z,11.80
2018-06-24T03:18:09.812Z,11.80
2018-06-24T03:20:38.420Z,11.70
2018-06-24T03:23:06.880Z,11.70
2018-06-24T03:25:35.317Z,11.60
2018-06-24T03:28:04.130Z,11.50
2018-06-24T03:30:32.680Z,11.40
2018-06-24T03:33:01.262Z,11.40
2018-06-24T03:35:30.317Z,11.40
2018-06-24T03:37:59.145Z,11.40
2018-06-24T03:40:27.597Z,11.50
2018-06-24T03:42:56.051Z,11.50
2018-06-24T03:45:24.534Z,11.50
2018-06-24T03:47:53.057Z,11.60
2018-06-24T03:50:21.504Z,11.60
2018-06-24T03:52:50.229Z,11.60
2018-06-24T03:55:18.702Z,11.60
2018-06-24T03:57:47.184Z,11.60
2018-06-24T04:00:15.647Z,11.60
2018-06-24T04:02:44.549Z,11.70
2018-06-24T04:05:13.069Z,11.70
2018-06-24T04:07:41.498Z,11.80
2018-06-24T04:10:09.960Z,11.80
2018-06-24T04:12:38.399Z,11.90
2018-06-24T04:15:07.072Z,11.90
2018-06-24T04:17:35.543Z,11.90
2018-06-24T04:20:04.128Z,11.90
2018-06-24T04:22:32.577Z,11.90
2018-06-24T04:25:01.068Z,12.00
2018-06-24T04:27:29.631Z,12.00
2018-06-24T04:29:58.279Z,12.10
2018-06-24T04:32:26.728Z,12.10
2018-06-24T04:34:55.592Z,12.20
2018-06-24T04:37:24.057Z,12.20
2018-06-24T04:39:52.649Z,12.30
2018-06-24T04:42:21.081Z,12.40
2018-06-24T04:44:49.518Z,12.40
2018-06-24T04:47:17.980Z,12.50
2018-06-24T04:49:46.411Z,12.50
2018-06-24T04:52:14.960Z,12.60
2018-06-24T04:54:43.423Z,12.60
2018-06-24T04:57:11.962Z,12.60
2018-06-24T04:59:40.415Z,12.70
2018-06-24T05:04:37.447Z,12.90
2018-06-24T05:07:05.957Z,13.00
2018-06-24T05:09:34.439Z,13.10
2018-06-24T05:12:02.956Z,13.30
2018-06-24T05:14:31.394Z,13.50
2018-06-24T05:16:59.895Z,13.80
2018-06-24T05:19:28.412Z,13.90
2018-06-24T05:21:56.880Z,14.00
2018-06-24T05:24:25.320Z,14.00
2018-06-24T05:26:53.784Z,14.00
2018-06-24T05:29:22.329Z,14.10
2018-06-24T05:31:50.963Z,14.30
2018-06-24T05:34:19.495Z,14.80
2018-06-24T05:36:47.963Z,15.00
2018-06-24T05:39:16.495Z,16.30
2018-06-24T05:41:44.998Z,16.50
2018-06-24T05:44:13.457Z,16.30
2018-06-24T05:46:42.069Z,16.20
2018-06-24T05:49:10.684Z,15.80
2018-06-24T05:51:39.292Z,15.80
2018-06-24T05:54:07.915Z,15.70
2018-06-24T05:56:36.400Z,15.70
2018-06-24T05:59:04.943Z,15.60
2018-06-24T06:01:34.312Z,15.70
2018-06-24T06:04:03.015Z,15.50
2018-06-24T06:06:31.472Z,15.50
2018-06-24T06:09:00.553Z,15.50
2018-06-24T06:11:28.957Z,16.00
2018-06-24T06:16:25.555Z,16.20
2018-06-24T06:18:54.185Z,16.30
2018-06-24T06:21:23.288Z,16.40
2018-06-24T06:23:51.756Z,16.40
2018-06-24T06:26:20.231Z,16.60
2018-06-24T06:28:48.687Z,16.60
2018-06-24T06:31:17.294Z,16.30
2018-06-24T06:33:45.848Z,16.40
2018-06-24T06:36:14.383Z,17.10
2018-06-24T06:38:42.842Z,17.90
2018-06-24T06:41:11.507Z,18.20
2018-06-24T06:43:40.019Z,18.50
2018-06-24T06:46:11.491Z,18.50
2018-06-24T06:48:40.029Z,18.40
2018-06-24T06:51:09.851Z,18.10
2018-06-24T06:53:38.615Z,18.30
2018-06-24T06:56:07.877Z,18.90
2018-06-24T06:58:36.508Z,18.70
2018-06-24T07:01:05.215Z,18.70
2018-06-24T07:03:33.734Z,18.70
2018-06-24T07:06:03.554Z,18.50
2018-06-24T07:08:32.575Z,18.40
2018-06-24T07:11:01.084Z,18.30
2018-06-24T07:13:29.523Z,18.00
2018-06-24T07:15:58.097Z,17.80
2018-06-24T07:18:26.822Z,17.50
2018-06-24T07:20:57.072Z,17.50
2018-06-24T07:23:26.085Z,17.10
2018-06-24T07:25:54.804Z,16.80
2018-06-24T07:28:23.448Z,16.70
2018-06-24T07:30:53.339Z,16.70
2018-06-24T07:33:21.871Z,16.90
2018-06-24T07:35:50.525Z,16.70
2018-06-24T07:38:19.293Z,16.60
2018-06-24T07:40:47.816Z,16.80
2018-06-24T07:43:16.511Z,17.20
2018-06-24T07:45:45.464Z,17.30
2018-06-24T07:48:13.968Z,17.30
2018-06-24T07:50:42.488Z,18.10
2018-06-24T07:53:11.000Z,18.20
2018-06-24T07:55:39.713Z,17.80
2018-06-24T07:58:08.226Z,17.30
2018-06-24T08:00:36.764Z,16.90
2018-06-24T08:03:05.425Z,16.70
2018-06-24T08:05:33.819Z,16.70
2018-06-24T08:08:02.513Z,16.40
2018-06-24T08:10:31.320Z,16.20
2018-06-24T08:12:59.845Z,16.30
2018-06-24T08:15:28.596Z,16.30
2018-06-24T08:17:57.183Z,16.60
2018-06-24T08:20:25.724Z,17.00
2018-06-24T08:22:54.590Z,17.30
2018-06-24T08:25:23.440Z,17.60
2018-06-24T08:27:51.881Z,17.70
2018-06-24T08:30:20.371Z,17.80
2018-06-24T08:32:48.815Z,18.00
2018-06-24T08:35:17.268Z,17.90
2018-06-24T08:37:45.708Z,17.90
2018-06-24T08:40:14.506Z,17.80
2018-06-24T08:42:43.238Z,17.90
2018-06-24T08:45:11.842Z,18.10
2018-06-24T08:47:40.333Z,18.00
2018-06-24T08:50:08.935Z,18.00
2018-06-24T08:52:37.529Z,17.60
2018-06-24T08:55:06.237Z,17.60
2018-06-24T08:57:34.733Z,18.00
2018-06-24T09:00:03.254Z,17.90
2018-06-24T09:02:31.706Z,18.10
2018-06-24T09:05:01.165Z,19.10
2018-06-24T09:07:29.626Z,18.90
2018-06-24T09:09:58.934Z,19.20
2018-06-24T09:12:27.754Z,19.40
2018-06-24T09:14:56.450Z,19.80
2018-06-24T09:17:25.055Z,19.40
2018-06-24T09:19:54.088Z,18.80
2018-06-24T09:22:22.907Z,19.10
2018-06-24T09:24:52.089Z,19.70
2018-06-24T09:27:20.911Z,19.80
2018-06-24T09:29:49.514Z,19.90
2018-06-24T09:32:18.320Z,20.20
2018-06-24T09:34:46.816Z,20.60
2018-06-24T09:37:16.287Z,20.60
2018-06-24T09:39:45.144Z,20.80
2018-06-24T09:42:14.749Z,21.20
2018-06-24T09:44:44.242Z,21.70
2018-06-24T09:47:12.765Z,21.80
2018-06-24T09:49:41.223Z,22.30
2018-06-24T09:52:09.807Z,21.60
2018-06-24T09:54:38.360Z,21.20
2018-06-24T09:57:06.881Z,20.70
2018-06-24T09:59:35.375Z,20.10
2018-06-24T10:02:04.755Z,19.50
2018-06-24T10:04:33.437Z,19.30
2018-06-24T10:07:02.380Z,19.30
2018-06-24T10:09:31.080Z,19.50
2018-06-24T10:11:59.852Z,20.40
2018-06-24T10:14:28.337Z,21.10
2018-06-24T10:16:56.807Z,21.90
2018-06-24T10:19:25.331Z,21.70
2018-06-24T10:21:53.818Z,21.00
2018-06-24T10:24:22.517Z,20.70
2018-06-24T10:29:19.563Z,20.00
2018-06-24T10:31:48.223Z,20.00
2018-06-24T10:34:16.806Z,20.60
2018-06-24T10:36:45.311Z,20.60
2018-06-24T10:39:13.837Z,21.20
2018-06-24T10:41:43.234Z,21.10
2018-06-24T10:44:11.772Z,21.40
2018-06-24T10:46:40.421Z,22.10
2018-06-24T10:49:08.915Z,21.20
2018-06-24T10:51:37.760Z,20.90
2018-06-24T10:54:06.263Z,20.90
2018-06-24T10:56:34.940Z,21.30
2018-06-24T10:59:03.664Z,22.00
2018-06-24T11:01:32.135Z,22.30
2018-06-24T11:04:00.844Z,22.20
2018-06-24T11:06:29.409Z,22.10
2018-06-24T11:08:57.893Z,21.90
2018-06-24T11:11:26.628Z,21.40
2018-06-24T11:13:55.193Z,21.10
2018-06-24T11:16:24.364Z,21.10
2018-06-24T11:18:52.919Z,21.30
2018-06-24T11:21:21.512Z,21.30
2018-06-24T11:23:50.153Z,21.10
2018-06-24T11:26:19.698Z,21.70
2018-06-24T11:28:48.276Z,21.80
2018-06-24T11:31:16.806Z,21.80
2018-06-24T11:33:45.354Z,21.20
2018-06-24T11:36:13.845Z,20.70
2018-06-24T11:38:42.422Z,20.60
2018-06-24T11:41:10.967Z,20.80
2018-06-24T11:43:39.630Z,21.60
2018-06-24T11:46:08.322Z,22.10
2018-06-24T11:48:37.033Z,22.30
2018-06-24T11:51:05.545Z,21.70
2018-06-24T11:53:34.146Z,21.10
2018-06-24T11:56:02.806Z,21.10
2018-06-24T11:58:31.286Z,21.70
2018-06-24T12:00:59.781Z,22.00
2018-06-24T12:03:28.312Z,21.80
2018-06-24T12:05:56.786Z,21.60
2018-06-24T12:08:25.362Z,22.10
2018-06-24T12:10:53.843Z,22.40
2018-06-24T12:13:22.372Z,22.00
2018-06-24T12:15:51.070Z,22.10
2018-06-24T12:18:19.748Z,21.80
2018-06-24T12:20:48.331Z,21.90
2018-06-24T12:23:17.535Z,21.90
2018-06-24T12:25:46.227Z,22.10
2018-06-24T12:28:15.291Z,22.50
2018-06-24T12:30:43.834Z,22.90
2018-06-24T12:33:12.784Z,23.20
2018-06-24T12:35:41.308Z,22.90
2018-06-24T12:38:09.928Z,22.80
2018-06-24T12:40:38.392Z,22.80
2018-06-24T12:43:07.138Z,22.70
2018-06-24T12:45:36.037Z,22.70
2018-06-24T12:48:04.692Z,22.20
2018-06-24T12:50:33.184Z,21.50
2018-06-24T12:53:01.797Z,21.20
2018-06-24T12:57:58.812Z,21.30
2018-06-24T13:00:28.250Z,21.70
2018-06-24T13:03:01.741Z,21.90
2018-06-24T13:05:30.751Z,22.30
2018-06-24T13:07:59.540Z,22.00
2018-06-24T13:10:28.170Z,22.30
2018-06-24T13:12:56.716Z,22.10
2018-06-24T13:15:25.470Z,22.10
2018-06-24T13:17:54.360Z,22.10
2018-06-24T13:20:23.530Z,22.20
2018-06-24T13:22:52.053Z,21.80
2018-06-24T13:25:20.740Z,21.50
2018-06-24T13:27:49.918Z,21.60
2018-06-24T13:30:18.513Z,21.30
2018-06-24T13:32:47.083Z,21.80
2018-06-24T13:35:15.948Z,21.90
2018-06-24T13:37:45.022Z,21.80
2018-06-24T13:40:13.598Z,21.60
2018-06-24T13:42:42.232Z,21.40
2018-06-24T13:45:10.820Z,21.80
2018-06-24T13:47:39.333Z,21.60
2018-06-24T13:50:07.922Z,21.50
2018-06-24T13:52:36.555Z,21.40
2018-06-24T13:55:05.017Z,21.30
2018-06-24T13:57:33.690Z,21.30
2018-06-24T14:00:02.200Z,21.50
2018-06-24T14:02:30.947Z,22.10
2018-06-24T14:04:59.586Z,21.70
2018-06-24T14:07:28.162Z,21.50
2018-06-24T14:09:56.826Z,21.70
2018-06-24T14:12:25.401Z,21.30
2018-06-24T14:14:53.938Z,21.60
2018-06-24T14:17:22.391Z,21.60
2018-06-24T14:19:51.170Z,21.50
2018-06-24T14:22:19.743Z,21.70
2018-06-24T14:24:48.875Z,21.20
2018-06-24T14:27:17.385Z,21.40
2018-06-24T14:29:45.951Z,21.50
2018-06-24T14:32:14.473Z,21.40
2018-06-24T14:34:42.982Z,21.10
2018-06-24T14:37:11.848Z,20.70
2018-06-24T14:39:40.581Z,21.00
2018-06-24T14:42:09.286Z,21.20
2018-06-24T14:44:37.753Z,21.30
2018-06-24T14:47:06.245Z,21.30
2018-06-24T14:49:34.726Z,21.00
2018-06-24T14:52:03.657Z,20.70
2018-06-24T14:54:32.595Z,20.20
2018-06-24T14:57:01.125Z,20.70
2018-06-24T14:59:30.020Z,20.90
2018-06-24T15:01:58.605Z,21.00
2018-06-24T15:04:27.610Z,21.00
2018-06-24T15:06:56.179Z,21.00
2018-06-24T15:09:25.138Z,20.80
2018-06-24T15:11:53.705Z,20.80
2018-06-24T15:14:22.596Z,20.90
2018-06-24T15:16:51.196Z,20.90
2018-06-24T15:19:19.732Z,21.00
2018-06-24T15:21:48.205Z,20.90
2018-06-24T15:24:16.773Z,21.10
2018-06-24T15:26:45.332Z,21.30
2018-06-24T15:29:13.865Z,21.30
2018-06-24T15:31:42.472Z,21.30
2018-06-24T15:34:11.090Z,21.30
2018-06-24T15:36:39.641Z,21.00
2018-06-24T15:39:10.588Z,20.70
2018-06-24T15:41:39.370Z,20.80
2018-06-24T15:44:08.113Z,20.60
2018-06-24T15:46:37.571Z,20.50
2018-06-24T15:49:06.081Z,20.70
2018-06-24T15:51:34.536Z,20.50
2018-06-24T15:54:03.703Z,20.30
2018-06-24T15:56:32.269Z,20.40
2018-06-24T15:59:00.916Z,20.20
2018-06-24T16:01:29.440Z,20.00
2018-06-24T16:03:58.009Z,19.90
2018-06-24T16:06:26.584Z,19.90
2018-06-24T16:08:55.245Z,19.70
2018-06-24T16:11:23.974Z,19.80
2018-06-24T16:13:53.144Z,19.80
2018-06-24T16:16:21.607Z,19.90
2018-06-24T16:18:50.304Z,19.90
2018-06-24T16:21:19.022Z,19.80
2018-06-24T16:23:47.347Z,19.70
2018-06-24T16:26:15.838Z,19.70
2018-06-24T16:28:44.313Z,19.70
2018-06-24T16:31:12.853Z,19.60
2018-06-24T16:33:41.370Z,19.60
2018-06-24T16:36:09.939Z,19.70
2018-06-24T16:38:38.529Z,19.60
2018-06-24T16:41:07.216Z,19.40
2018-06-24T16:43:35.799Z,19.50
2018-06-24T16:46:04.744Z,19.50
2018-06-24T16:48:33.196Z,19.00
2018-06-24T16:51:06.785Z,19.10
2018-06-24T16:53:44.588Z,19.20
2018-06-24T16:56:13.169Z,19.10
2018-06-24T16:58:41.650Z,19.00
2018-06-24T17:01:10.418Z,19.00
2018-06-24T17:03:39.923Z,19.00
2018-06-24T17:06:09.643Z,18.90
2018-06-24T17:08:38.125Z,18.90
2018-06-24T17:11:07.004Z,18.60
2018-06-24T17:13:35.529Z,18.60
2018-06-24T17:16:04.059Z,18.40
2018-06-24T17:18:32.850Z,18.30
2018-06-24T17:21:01.361Z,18.10
2018-06-24T17:23:30.290Z,18.00
2018-06-24T17:25:58.824Z,18.00
2018-06-24T17:28:27.543Z,17.80
2018-06-24T17:30:56.053Z,17.90
2018-06-24T17:33:24.631Z,17.90
2018-06-24T17:35:53.280Z,18.00
2018-06-24T17:38:21.769Z,18.00
2018-06-24T17:40:50.242Z,18.00
2018-06-24T17:43:18.732Z,17.90
2018-06-24T17:45:47.236Z,17.90
2018-06-24T17:48:15.697Z,17.80
2018-06-24T17:50:44.203Z,17.80
2018-06-24T17:53:12.952Z,17.80
2018-06-24T17:55:41.588Z,17.60
2018-06-24T17:58:10.098Z,17.50
2018-06-24T18:00:38.601Z,17.40
2018-06-24T18:03:07.262Z,17.30
2018-06-24T18:05:36.643Z,17.30
2018-06-24T18:08:05.630Z,17.10
2018-06-24T18:13:02.461Z,17.00
2018-06-24T18:15:31.435Z,16.90
2018-06-24T18:18:10.265Z,16.90
2018-06-24T18:20:39.426Z,17.00
2018-06-24T18:23:08.068Z,17.00
2018-06-24T18:25:36.626Z,17.10
2018-06-24T18:28:05.187Z,17.00
2018-06-24T18:30:33.724Z,17.00
2018-06-24T18:33:02.364Z,17.10
2018-06-24T18:35:30.939Z,17.10
2018-06-24T18:37:59.556Z,17.10
2018-06-24T18:40:28.340Z,17.10
2018-06-24T18:42:56.969Z,17.10
2018-06-24T18:45:25.622Z,17.00
2018-06-24T18:47:54.333Z,17.00
2018-06-24T18:50:22.953Z,16.80
2018-06-24T18:52:51.630Z,16.90
2018-06-24T18:55:20.234Z,16.90
2018-06-24T18:57:49.219Z,16.80
2018-06-24T19:00:18.793Z,16.80
2018-06-24T19:02:47.760Z,16.80
2018-06-24T19:05:16.387Z,16.80
2018-06-24T19:07:44.979Z,16.80
2018-06-24T19:10:13.482Z,16.70
2018-06-24T19:12:42.181Z,16.60
2018-06-24T19:15:10.788Z,16.60
2018-06-24T19:17:39.456Z,16.50
2018-06-24T19:20:08.602Z,16.40
2018-06-24T19:22:37.292Z,16.30
2018-06-24T19:25:06.045Z,16.30
2018-06-24T19:27:34.678Z,16.20
2018-06-24T19:30:03.204Z,16.20
2018-06-24T19:32:31.860Z,16.20
2018-06-24T19:35:00.277Z,16.10
2018-06-24T19:37:28.783Z,16.10
2018-06-24T19:39:57.357Z,16.10
2018-06-24T19:42:26.009Z,16.10
2018-06-24T19:44:54.568Z,16.00
2018-06-24T19:47:23.153Z,16.00
2018-06-24T19:49:51.732Z,16.00
2018-06-24T19:52:20.554Z,15.90
2018-06-24T19:54:49.201Z,15.90
2018-06-24T19:57:17.695Z,15.90
2018-06-24T19:59:46.160Z,15.80
2018-06-24T20:02:14.844Z,15.80
2018-06-24T20:04:43.545Z,15.80
2018-06-24T20:07:12.072Z,15.80
2018-06-24T20:09:40.566Z,15.70
2018-06-24T20:12:09.032Z,15.60
2018-06-24T20:14:38.059Z,15.60
2018-06-24T20:17:07.171Z,15.60
2018-06-24T20:19:35.784Z,15.60
2018-06-24T20:22:04.260Z,15.60
2018-06-24T20:24:35.020Z,15.50
2018-06-24T20:27:03.697Z,15.50
2018-06-24T20:29:32.235Z,15.40
2018-06-24T20:32:00.809Z,15.40
2018-06-24T20:34:29.546Z,15.40
2018-06-24T20:36:58.131Z,15.40
2018-06-24T20:39:26.593Z,15.40
2018-06-24T20:41:55.592Z,15.30
2018-06-24T20:44:24.513Z,15.30
2018-06-24T20:46:53.005Z,15.30
2018-06-24T20:49:21.716Z,15.40
2018-06-24T20:51:50.275Z,15.30
2018-06-24T20:54:18.812Z,15.30
2018-06-24T20:56:47.932Z,15.30
2018-06-24T21:01:44.601Z,15.40
2018-06-24T21:04:13.176Z,15.30
2018-06-24T21:06:41.760Z,15.30
2018-06-24T21:09:11.352Z,14.90
2018-06-24T21:11:40.191Z,14.70
2018-06-24T21:14:08.826Z,14.50
2018-06-24T21:16:37.369Z,14.30
2018-06-24T21:19:06.816Z,14.20
2018-06-24T21:21:35.255Z,14.00
2018-06-24T21:24:03.799Z,13.90
2018-06-24T21:26:32.316Z,13.90
2018-06-24T21:29:01.240Z,13.80
2018-06-24T21:31:29.926Z,13.80
2018-06-24T21:33:58.380Z,13.70
2018-06-24T21:36:26.944Z,13.70
2018-06-24T21:38:55.482Z,13.70
2018-06-24T21:41:23.960Z,13.60
2018-06-24T21:43:52.423Z,13.70
2018-06-24T21:46:21.114Z,13.60
2018-06-24T21:48:49.622Z,13.60
2018-06-24T21:51:18.090Z,13.60
2018-06-24T21:53:46.577Z,13.50
2018-06-24T21:56:15.229Z,13.50
2018-06-24T21:58:43.664Z,13.50
2018-06-24T22:01:12.226Z,13.40
2018-06-24T22:03:40.745Z,13.40
2018-06-24T22:06:09.227Z,13.40
2018-06-24T22:08:37.746Z,13.40
2018-06-24T22:11:06.336Z,13.30
2018-06-24T22:13:34.839Z,13.30
2018-06-24T22:16:03.388Z,13.30
2018-06-24T22:18:31.951Z,13.30
2018-06-24T22:21:00.863Z,13.30
2018-06-24T22:23:29.304Z,13.30
2018-06-24T22:25:57.740Z,13.30
2018-06-24T22:28:26.461Z,13.40
2018-06-24T22:30:55.037Z,13.40
2018-06-24T22:33:23.624Z,13.30
2018-06-24T22:35:52.136Z,13.40
2018-06-24T22:38:20.688Z,13.40
2018-06-24T22:40:49.203Z,13.40
2018-06-24T22:43:17.908Z,13.40
2018-06-24T22:45:46.539Z,13.50
2018-06-24T22:48:15.120Z,13.50
2018-06-24T22:50:43.712Z,13.50
2018-06-24T22:53:12.237Z,13.40
2018-06-24T22:55:40.753Z,13.40
2018-06-24T22:58:09.236Z,13.40
2018-06-24T23:00:38.893Z,13.40
2018-06-24T23:03:07.592Z,13.40
2018-06-24T23:05:36.100Z,13.50
2018-06-24T23:08:04.822Z,13.50
2018-06-24T23:10:33.357Z,13.50
2018-06-24T23:13:01.856Z,13.40
2018-06-24T23:15:30.281Z,13.40
2018-06-24T23:17:58.790Z,13.40
2018-06-24T23:20:27.360Z,13.40
2018-06-24T23:22:55.957Z,13.40
2018-06-24T23:25:24.415Z,13.40
2018-06-24T23:27:52.997Z,13.40
2018-06-24T23:30:21.532Z,13.40
2018-06-24T23:32:50.053Z,13.40
2018-06-24T23:35:18.608Z,13.40
2018-06-24T23:37:47.156Z,13.40
2018-06-24T23:40:15.617Z,13.40
2018-06-24T23:42:44.119Z,13.40
2018-06-24T23:45:12.677Z,13.40
2018-06-24T23:47:41.912Z,13.30
2018-06-24T23:50:10.691Z,13.30
2018-06-24T23:52:39.215Z,13.20
2018-06-24T23:55:07.722Z,13.20
2018-06-24T23:57:36.165Z,13.10
